Time;durP1;ratioP1;P1;durP2;ratioP2;P2;SDS_P1;SDS_P2;PMS_P1;PMS_P2;Temp;Humidity;BMP_temperature;BMP_pressure;BME280_temperature;BME280_humidity;BME280_pressure;Samples;Min_cycle;Max_cycle;Signal;HPM_P1;HPM_P2
2023/07/01 02:47:56;;;;;;;15.90;14.70;;;18.20;99.90;;;;;;2613954;54;20553;-75
2023/07/01 02:53:44;;;;;;;15.73;14.93;;;18.40;99.90;;;;;;2613781;54;21081;-75
2023/07/01 02:59:32;;;;;;;16.40;15.57;;;18.40;99.90;;;;;;2613627;54;20118;-75
2023/07/01 03:05:21;;;;;;;16.13;15.17;;;18.40;99.90;;;;;;2613370;54;20690;-75
2023/07/01 03:11:09;;;;;;;14.17;13.50;;;18.40;99.90;;;;;;2614656;54;20388;-75
2023/07/01 03:16:56;;;;;;;15.10;14.40;;;18.40;99.90;;;;;;2612858;54;20122;-74
2023/07/01 03:22:44;;;;;;;16.40;15.50;;;18.30;99.90;;;;;;2615081;54;20130;-74
2023/07/01 03:28:32;;;;;;;15.70;14.70;;;18.30;99.90;;;;;;2613494;54;20480;-75
2023/07/01 03:34:22;;;;;;;15.17;14.37;;;18.20;99.90;;;;;;2615321;54;21076;-75
2023/07/01 03:40:10;;;;;;;16.40;15.33;;;18.20;99.90;;;;;;2614035;39;20786;-74
2023/07/01 03:49:22;;;;;;;15.70;15.00;;;18.10;99.90;;;;;;2613831;54;20375;-75
2023/07/01 03:55:11;;;;;;;15.50;14.73;;;18.20;99.90;;;;;;2614805;54;20378;-75
2023/07/01 04:00:59;;;;;;;14.90;14.20;;;18.20;99.90;;;;;;2613863;54;20358;-75
2023/07/01 04:06:46;;;;;;;15.87;14.97;;;18.20;99.90;;;;;;2613344;46;20142;-75
2023/07/01 04:12:36;;;;;;;14.83;14.10;;;18.10;99.90;;;;;;2614172;54;20170;-75
2023/07/01 04:18:23;;;;;;;15.70;14.63;;;18.30;99.90;;;;;;2613635;54;20372;-75
2023/07/01 04:24:11;;;;;;;15.27;14.47;;;18.20;99.90;;;;;;2614924;54;20144;-75
2023/07/01 04:29:59;;;;;;;15.07;14.37;;;18.20;99.90;;;;;;2614757;54;20706;-75
2023/07/01 04:35:47;;;;;;;15.17;13.93;;;18.10;99.90;;;;;;2614453;54;20143;-75
2023/07/01 04:41:34;;;;;;;14.50;13.50;;;18.20;99.90;;;;;;2614330;54;20150;-75
2023/07/01 04:44:56;;;;;;;13.60;13.00;;;18.20;99.90;;;;;;2614840;47;20415;-74
2023/07/01 04:47:23;;;;;;;14.50;13.40;;;18.40;99.90;;;;;;2614738;54;20154;-74
2023/07/01 04:53:10;;;;;;;14.47;13.77;;;18.40;99.90;;;;;;2611517;54;20427;-77
2023/07/01 04:59:00;;;;;;;15.00;14.03;;;18.50;99.90;;;;;;2614667;54;20130;-76
2023/07/01 05:04:47;;;;;;;15.37;14.57;;;18.60;99.90;;;;;;2616021;54;20392;-75
2023/07/01 05:10:35;;;;;;;14.43;13.70;;;18.70;99.90;;;;;;2615557;54;20152;-75
2023/07/01 05:16:23;;;;;;;13.83;13.03;;;18.90;99.90;;;;;;2615560;54;20253;-76
2023/07/01 05:22:11;;;;;;;14.43;13.73;;;19.00;99.90;;;;;;2614879;54;20157;-75
2023/07/01 05:27:58;;;;;;;14.40;13.67;;;19.00;99.90;;;;;;2614624;54;20172;-75
2023/07/01 05:33:46;;;;;;;14.23;13.53;;;19.10;99.90;;;;;;2613123;54;20139;-75
2023/07/01 05:39:34;;;;;;;13.27;12.73;;;19.30;99.90;;;;;;2613858;39;20789;-75
2023/07/01 05:49:21;;;;;;;15.40;14.50;;;19.30;99.90;;;;;;2612723;54;20338;-76
2023/07/01 05:55:09;;;;;;;13.90;13.20;;;19.50;99.90;;;;;;2614164;54;20367;-74
2023/07/01 06:00:57;;;;;;;15.13;14.43;;;19.40;99.90;;;;;;2612704;46;20612;-76
2023/07/01 06:06:44;;;;;;;14.07;13.47;;;19.30;99.90;;;;;;2614754;39;20607;-75
2023/07/01 06:12:32;;;;;;;14.03;13.23;;;19.10;99.90;;;;;;2614066;39;20813;-76
2023/07/01 06:18:20;;;;;;;12.60;12.00;;;19.00;99.90;;;;;;2612222;39;20658;-75
2023/07/01 06:24:08;;;;;;;12.77;12.17;;;18.50;99.90;;;;;;2611375;54;20122;-76
2023/07/01 06:29:56;;;;;;;13.00;12.30;;;18.40;99.90;;;;;;2614391;54;20126;-75
2023/07/01 06:35:43;;;;;;;12.73;11.73;;;18.30;99.90;;;;;;2614558;54;20395;-74
2023/07/01 06:41:31;;;;;;;12.10;11.40;;;18.20;99.90;;;;;;2614919;54;20229;-76
2023/07/01 06:44:52;;;;;;;13.90;13.00;;;18.20;99.90;;;;;;2614751;54;20415;-74
2023/07/01 06:47:17;;;;;;;13.03;12.10;;;18.20;99.90;;;;;;2612366;54;20154;-75
2023/07/01 06:53:05;;;;;;;11.00;10.40;;;17.90;99.90;;;;;;2612069;54;20133;-74
2023/07/01 06:58:53;;;;;;;11.13;10.30;;;17.90;99.90;;;;;;2614663;54;20364;-74
2023/07/01 07:04:42;;;;;;;9.33;8.83;;;17.70;99.90;;;;;;2614775;54;20622;-75
2023/07/01 07:10:29;;;;;;;10.47;9.70;;;17.60;99.90;;;;;;2614386;54;20386;-76
2023/07/01 07:16:17;;;;;;;9.53;9.00;;;17.50;99.90;;;;;;2615587;54;20142;-75
2023/07/01 07:22:05;;;;;;;10.30;8.50;;;17.80;99.90;;;;;;2613270;54;20658;-75
2023/07/01 07:27:53;;;;;;;9.87;9.27;;;17.90;99.90;;;;;;2613043;54;20995;-76
2023/07/01 07:33:40;;;;;;;10.90;10.00;;;17.80;99.90;;;;;;2615487;39;20505;-75
2023/07/01 07:39:28;;;;;;;10.47;9.87;;;18.20;99.90;;;;;;2614577;54;20134;-75
2023/07/01 07:49:19;;;;;;;10.20;9.60;;;18.30;99.90;;;;;;2615408;39;20825;-76
2023/07/01 07:55:07;;;;;;;10.90;10.20;;;18.70;99.90;;;;;;2614773;54;20391;-71
2023/07/01 08:00:54;;;;;;;9.70;9.20;;;18.70;99.90;;;;;;2614613;54;20419;-72
2023/07/01 08:06:42;;;;;;;10.90;10.00;;;18.70;99.90;;;;;;2614923;54;20665;-70
2023/07/01 08:12:30;;;;;;;10.13;9.63;;;19.50;99.90;;;;;;2614664;54;20125;-72
2023/07/01 08:18:17;;;;;;;12.37;11.23;;;19.40;99.90;;;;;;2614573;54;20114;-71
2023/07/01 08:24:08;;;;;;;11.17;10.37;;;18.80;99.90;;;;;;2614781;54;20790;-72
2023/07/01 08:29:56;;;;;;;9.23;8.83;;;19.10;99.90;;;;;;2612334;54;20430;-72
2023/07/01 08:35:44;;;;;;;10.03;9.57;;;19.00;99.90;;;;;;2614558;54;20166;-72
2023/07/01 08:57:41;;;;;;;10.10;8.80;;;19.30;99.90;;;;;;2614662;54;20420;-73
2023/07/01 09:03:29;;;;;;;9.03;8.33;;;18.90;99.90;;;;;;2614084;46;20411;-72
2023/07/01 09:09:17;;;;;;;8.47;7.83;;;18.60;99.90;;;;;;2614226;54;20459;-72
2023/07/01 09:15:07;;;;;;;8.33;7.73;;;18.60;99.90;;;;;;2614660;54;20123;-72
2023/07/01 09:20:55;;;;;;;7.70;7.30;;;18.80;99.90;;;;;;2615227;54;20419;-72
2023/07/01 09:33:12;;;;;;;9.97;9.37;;;19.30;99.90;;;;;;2612558;54;20439;-71
2023/07/01 09:39:01;;;;;;;9.20;8.63;;;19.80;99.90;;;;;;2614195;54;20387;-74
2023/07/01 09:58:10;;;;;;;7.57;6.97;;;17.60;99.90;;;;;;2615238;54;21723;-72
2023/07/01 10:03:57;;;;;;;6.70;6.20;;;17.70;99.90;;;;;;2613942;54;20163;-72
2023/07/01 10:09:47;;;;;;;5.70;5.40;;;17.60;99.90;;;;;;2612645;54;20159;-72
2023/07/01 10:15:35;;;;;;;5.20;4.87;;;17.80;99.90;;;;;;2613726;54;20479;-73
2023/07/01 10:21:23;;;;;;;6.00;5.60;;;17.90;99.90;;;;;;2614580;39;20674;-73
2023/07/01 10:27:11;;;;;;;4.33;4.03;;;17.80;99.90;;;;;;2612962;54;20150;-72
2023/07/01 10:32:59;;;;;;;5.50;5.10;;;18.10;99.90;;;;;;2613872;54;20131;-73
2023/07/01 10:38:47;;;;;;;5.27;4.77;;;18.30;99.90;;;;;;2614968;54;20134;-73
2023/07/01 10:44:34;;;;;;;5.07;4.77;;;18.10;99.90;;;;;;2614680;54;20656;-72
2023/07/01 10:50:22;;;;;;;4.40;3.97;;;18.30;99.90;;;;;;2614069;54;20137;-72
2023/07/01 10:56:13;;;;;;;4.93;4.57;;;18.50;99.90;;;;;;2614661;54;20194;-73
2023/07/01 11:02:01;;;;;;;3.47;3.27;;;18.80;99.90;;;;;;2614025;54;20436;-73
2023/07/01 11:07:48;;;;;;;4.23;3.83;;;18.70;99.90;;;;;;2613535;46;20146;-73
2023/07/01 11:13:36;;;;;;;3.83;3.13;;;18.40;99.90;;;;;;2613480;54;20127;-72
2023/07/01 11:19:23;;;;;;;2.70;2.50;;;18.00;99.90;;;;;;2613550;54;20694;-72
2023/07/01 11:25:11;;;;;;;3.03;2.83;;;18.10;99.90;;;;;;2614040;54;20134;-72
2023/07/01 11:31:16;;;;;;;2.70;2.47;;;17.80;99.90;;;;;;2614874;54;20162;-72
2023/07/01 11:37:04;;;;;;;3.33;2.80;;;17.70;99.90;;;;;;2613702;54;20483;-73
2023/07/01 11:42:53;;;;;;;2.63;2.43;;;17.70;99.90;;;;;;2613914;54;20423;-72
2023/07/01 11:48:41;;;;;;;3.70;2.80;;;17.60;99.90;;;;;;2613042;54;20432;-73
2023/07/01 11:54:48;;;;;;;3.13;2.93;;;17.40;99.90;;;;;;2614645;54;20555;-71
2023/07/01 12:00:38;;;;;;;3.43;3.13;;;17.80;99.90;;;;;;2614492;39;20600;-73
2023/07/01 12:06:26;;;;;;;3.63;2.90;;;18.00;99.90;;;;;;2610564;54;20399;-71
2023/07/01 12:18:45;;;;;;;4.40;4.10;;;18.20;99.90;;;;;;2612430;54;22259;-72
2023/07/01 12:24:35;;;;;;;4.30;4.00;;;18.20;99.90;;;;;;2613681;54;20154;-72
2023/07/01 12:30:23;;;;;;;4.20;3.90;;;18.30;99.90;;;;;;2612628;54;20440;-73
2023/07/01 12:36:13;;;;;;;4.20;3.90;;;18.50;99.90;;;;;;2614265;54;20122;-72
2023/07/01 12:42:00;;;;;;;4.33;3.50;;;18.80;99.90;;;;;;2614179;54;20358;-72
2023/07/01 12:44:53;;;;;;;4.47;3.87;;;18.80;99.90;;;;;;2613261;54;20914;-73
2023/07/01 12:47:19;;;;;;;4.53;3.53;;;18.80;99.90;;;;;;2614295;47;21004;-73
2023/07/01 12:53:07;;;;;;;3.93;3.63;;;19.00;99.90;;;;;;2613444;54;20680;-71
2023/07/01 12:58:55;;;;;;;4.13;3.70;;;19.00;99.90;;;;;;2612414;54;20130;-71
2023/07/01 13:04:43;;;;;;;3.50;3.30;;;18.80;99.90;;;;;;2612498;54;20122;-72
2023/07/01 13:10:30;;;;;;;3.60;3.30;;;19.00;99.90;;;;;;2615096;54;20158;-72
2023/07/01 13:22:55;;;;;;;3.53;3.30;;;19.80;99.90;;;;;;2615672;39;20929;-72
2023/07/01 13:28:42;;;;;;;5.20;4.40;;;20.20;99.90;;;;;;2615041;54;20770;-72
2023/07/01 13:34:36;;;;;;;3.90;3.70;;;20.70;99.90;;;;;;2615370;54;20680;-72
2023/07/01 13:40:24;;;;;;;3.53;3.33;;;21.40;99.90;;;;;;2614895;54;20398;-71
2023/07/01 13:49:37;;;;;;;5.10;4.80;;;22.70;99.90;;;;;;2615220;54;20411;-71
2023/07/01 13:55:25;;;;;;;4.97;4.70;;;22.60;99.90;;;;;;2615781;54;20500;-72
2023/07/01 14:01:14;;;;;;;9.27;5.33;;;23.00;99.90;;;;;;2615148;54;20134;-71
2023/07/01 14:07:03;;;;;;;5.20;4.90;;;22.00;99.90;;;;;;2613629;54;20426;-71
2023/07/01 14:12:51;;;;;;;6.00;5.70;;;22.00;99.90;;;;;;2614372;39;21094;-71
2023/07/01 14:18:40;;;;;;;7.00;6.70;;;22.90;99.90;;;;;;2613803;54;20670;-72
2023/07/01 14:24:28;;;;;;;8.23;7.73;;;23.80;99.90;;;;;;2613601;54;20443;-71
2023/07/01 14:36:57;;;;;;;7.43;7.03;;;22.40;99.90;;;;;;2614828;54;20395;-72
2023/07/01 14:42:45;;;;;;;7.30;7.00;;;23.10;99.90;;;;;;2615335;54;20366;-72
2023/07/01 14:51:55;;;;;;;7.67;7.20;;;23.70;99.90;;;;;;2615383;54;20415;-71
2023/07/01 14:57:43;;;;;;;7.70;7.30;;;23.30;99.90;;;;;;2615608;54;20142;-72
2023/07/01 15:03:30;;;;;;;8.27;7.87;;;23.50;99.90;;;;;;2615849;39;20815;-71
2023/07/01 15:09:18;;;;;;;7.50;7.20;;;23.20;99.90;;;;;;2615277;39;20799;-71
2023/07/01 15:15:06;;;;;;;7.60;7.20;;;23.00;99.90;;;;;;2615117;54;20130;-72
2023/07/01 15:20:54;;;;;;;6.90;6.50;;;22.40;99.90;;;;;;2614361;54;20901;-71
2023/07/01 15:26:42;;;;;;;7.40;6.90;;;22.00;99.90;;;;;;2614786;54;20122;-71
2023/07/01 15:32:30;;;;;;;8.00;7.50;;;21.30;99.90;;;;;;2615496;54;20134;-72
2023/07/01 15:38:18;;;;;;;9.97;9.47;;;21.50;99.90;;;;;;2615051;54;20130;-72
2023/07/01 15:44:05;;;;;;;10.10;9.50;;;22.00;99.90;;;;;;2615324;39;20537;-72
2023/07/01 15:47:26;;;;;;;10.30;9.80;;;23.00;99.90;;;;;;2614541;54;20419;-72
2023/07/01 15:49:51;;;;;;;10.00;9.60;;;22.70;99.90;;;;;;2614954;54;20645;-72
2023/07/01 15:55:39;;;;;;;11.93;11.13;;;22.60;99.90;;;;;;2614843;54;20680;-72
2023/07/01 16:01:29;;;;;;;11.23;10.60;;;22.50;99.90;;;;;;2614241;31;20763;-72
2023/07/01 16:07:16;;;;;;;10.20;9.80;;;23.00;99.90;;;;;;2613856;54;20385;-72
2023/07/01 16:13:05;;;;;;;10.00;9.30;;;22.00;99.90;;;;;;2614738;54;20138;-71
2023/07/01 16:18:53;;;;;;;9.97;9.47;;;21.70;99.90;;;;;;2614961;54;20391;-72
2023/07/01 16:24:53;;;;;;;10.60;10.10;;;21.80;99.90;;;;;;2614010;54;20426;-70
2023/07/01 16:30:40;;;;;;;10.53;10.03;;;21.90;99.90;;;;;;2616517;54;20371;-72
2023/07/01 16:36:30;;;;;;;11.70;11.07;;;21.60;99.90;;;;;;2616533;54;20419;-71
2023/07/01 16:42:20;;;;;;;11.20;10.50;;;21.40;99.90;;;;;;2617005;54;20366;-71
2023/07/01 16:51:58;;;;;;;10.00;9.43;;;21.00;99.90;;;;;;2616316;54;20383;-72
2023/07/01 16:57:46;;;;;;;11.03;10.33;;;20.80;99.90;;;;;;2616662;54;20411;-72
2023/07/01 17:03:36;;;;;;;10.53;9.93;;;20.60;99.90;;;;;;2614581;54;20468;-71
2023/07/01 17:09:46;;;;;;;10.33;9.63;;;20.30;99.90;;;;;;2616246;54;20367;-72
2023/07/01 17:15:40;;;;;;;9.37;8.93;;;20.20;99.90;;;;;;2616430;54;20375;-72
2023/07/01 17:21:28;;;;;;;11.57;10.93;;;20.10;99.90;;;;;;2616173;54;20418;-71
2023/07/01 17:27:16;;;;;;;9.97;9.23;;;20.00;99.90;;;;;;2616162;54;20264;-72
2023/07/01 17:33:03;;;;;;;10.10;9.60;;;20.00;99.90;;;;;;2615122;54;20195;-73
2023/07/01 17:38:51;;;;;;;8.27;7.80;;;19.90;99.90;;;;;;2615420;46;20177;-71
2023/07/01 17:44:47;;;;;;;9.57;8.97;;;19.90;99.90;;;;;;2615394;54;20187;-72
2023/07/01 17:54:23;;;;;;;10.37;9.77;;;19.90;99.90;;;;;;2613763;54;20449;-72
2023/07/01 18:00:10;;;;;;;9.83;9.30;;;20.00;99.90;;;;;;2613743;54;20413;-71
2023/07/01 18:05:58;;;;;;;10.63;9.87;;;19.70;99.90;;;;;;2613980;54;20432;-71
2023/07/01 18:11:45;;;;;;;7.93;7.53;;;19.70;99.90;;;;;;2613807;54;21101;-72
2023/07/01 18:17:32;;;;;;;8.40;7.80;;;19.60;99.90;;;;;;2613924;54;20277;-72
2023/07/01 18:23:19;;;;;;;9.30;8.80;;;19.70;99.90;;;;;;2613889;54;20114;-71
2023/07/01 18:29:07;;;;;;;8.70;8.10;;;19.70;99.90;;;;;;2614960;54;20231;-72
2023/07/01 18:34:55;;;;;;;8.33;7.83;;;19.60;99.90;;;;;;2615282;54;20157;-71
2023/07/01 18:40:43;;;;;;;9.37;8.53;;;19.60;99.90;;;;;;2615093;54;20395;-71
2023/07/01 18:46:31;;;;;;;8.00;7.60;;;19.60;99.90;;;;;;2615276;54;20143;-71
2023/07/01 18:52:18;;;;;;;8.63;8.13;;;19.50;99.90;;;;;;2615507;54;20122;-72
2023/07/01 18:58:06;;;;;;;8.10;7.63;;;19.40;99.90;;;;;;2615615;54;20242;-72
2023/07/01 19:03:53;;;;;;;7.60;7.20;;;19.40;99.90;;;;;;2611466;54;20210;-72
2023/07/01 19:09:41;;;;;;;7.83;7.33;;;19.30;99.90;;;;;;2615099;54;20163;-71
2023/07/01 19:15:29;;;;;;;7.43;7.03;;;19.20;99.90;;;;;;2615490;39;20637;-71
2023/07/01 19:21:17;;;;;;;6.77;6.17;;;18.80;99.90;;;;;;2614632;54;20657;-72
2023/07/01 19:27:05;;;;;;;6.87;6.27;;;18.40;99.90;;;;;;2615087;54;20415;-71
2023/07/01 19:32:54;;;;;;;5.53;5.20;;;18.30;99.90;;;;;;2615201;54;20134;-72
2023/07/01 19:38:41;;;;;;;5.33;5.00;;;18.30;99.90;;;;;;2614935;54;20460;-72
2023/07/01 19:44:30;;;;;;;4.80;4.50;;;18.30;99.90;;;;;;2614944;39;20551;-71
2023/07/01 19:53:40;;;;;;;6.13;5.60;;;18.30;99.90;;;;;;2615126;39;21214;-72
2023/07/01 19:59:27;;;;;;;5.50;5.10;;;18.20;99.90;;;;;;2614767;54;20134;-72
2023/07/01 20:05:15;;;;;;;5.60;5.20;;;18.30;99.90;;;;;;2615031;54;20143;-72
2023/07/01 20:11:03;;;;;;;5.73;5.33;;;18.20;99.90;;;;;;2615372;54;20130;-70
2023/07/01 20:16:51;;;;;;;5.93;5.43;;;18.20;99.90;;;;;;2614826;54;20130;-71
2023/07/01 20:22:39;;;;;;;6.83;5.57;;;18.10;99.90;;;;;;2614961;54;20356;-72
2023/07/01 20:28:27;;;;;;;6.67;6.10;;;18.00;99.90;;;;;;2614514;54;20150;-72
2023/07/01 20:34:15;;;;;;;6.20;5.67;;;18.00;99.90;;;;;;2615110;54;20126;-72
2023/07/01 20:40:04;;;;;;;5.80;5.30;;;17.90;99.90;;;;;;2615154;39;21071;-72
2023/07/01 20:45:51;;;;;;;5.97;5.57;;;17.90;99.90;;;;;;2614552;54;20403;-72
2023/07/01 20:51:54;;;;;;;6.67;5.80;;;17.80;99.90;;;;;;2613417;47;20132;-72
2023/07/01 20:57:41;;;;;;;6.27;5.77;;;17.70;99.90;;;;;;2613364;54;20133;-72
2023/07/01 21:03:28;;;;;;;5.50;5.00;;;17.60;99.90;;;;;;2611869;54;20131;-72
2023/07/01 21:09:17;;;;;;;6.20;5.70;;;17.60;99.90;;;;;;2613277;54;20540;-71
2023/07/01 21:15:04;;;;;;;6.23;5.70;;;17.50;99.90;;;;;;2612518;54;20433;-72
2023/07/01 21:20:52;;;;;;;6.70;5.80;;;17.50;99.90;;;;;;2614361;39;20932;-71
2023/07/01 21:26:39;;;;;;;5.80;5.20;;;17.50;99.90;;;;;;2614488;54;20427;-72
2023/07/01 21:32:27;;;;;;;6.57;6.07;;;17.40;99.90;;;;;;2615549;54;20171;-72
2023/07/01 21:38:14;;;;;;;7.97;6.57;;;17.30;99.90;;;;;;2615338;54;20122;-72
2023/07/01 21:44:02;;;;;;;7.30;6.73;;;17.30;99.90;;;;;;2615945;39;20592;-72
2023/07/01 21:53:46;;;;;;;7.63;6.93;;;17.40;99.90;;;;;;2615783;39;20819;-72
2023/07/01 21:59:34;;;;;;;6.70;6.10;;;17.50;99.90;;;;;;2614983;54;20395;-73
2023/07/01 22:05:26;;;;;;;6.63;6.13;;;17.40;99.90;;;;;;2615417;54;20147;-71
2023/07/01 22:11:15;;;;;;;6.43;5.83;;;17.30;99.90;;;;;;2614170;39;20817;-72
2023/07/01 22:17:03;;;;;;;7.10;6.40;;;17.20;99.90;;;;;;2615588;54;20391;-71
2023/07/01 22:22:50;;;;;;;7.13;6.43;;;17.10;99.90;;;;;;2615645;54;20129;-73
2023/07/01 22:28:39;;;;;;;7.40;6.70;;;17.20;99.90;;;;;;2613137;54;20649;-73
2023/07/01 22:34:27;;;;;;;6.50;5.97;;;17.20;99.90;;;;;;2612763;54;20391;-72
2023/07/01 22:40:14;;;;;;;6.63;6.10;;;17.10;99.90;;;;;;2613042;39;20618;-72
2023/07/01 22:46:02;;;;;;;7.37;6.20;;;17.20;99.90;;;;;;2614371;54;21033;-73
2023/07/01 22:49:08;;;;;;;7.17;6.47;;;17.20;99.90;;;;;;2613608;54;20436;-72
2023/07/01 22:51:34;;;;;;;7.43;6.83;;;17.30;99.90;;;;;;2613848;47;20158;-72
2023/07/01 22:57:21;;;;;;;7.73;6.97;;;17.20;99.90;;;;;;2613334;54;20134;-72
2023/07/01 23:00:25;;;;;;;6.57;6.07;;;17.30;99.90;;;;;;2613460;54;20439;-72
2023/07/01 23:02:50;;;;;;;6.60;6.00;;;17.30;99.90;;;;;;2614378;47;20174;-71
2023/07/01 23:08:38;;;;;;;7.20;6.60;;;17.20;99.90;;;;;;2615146;54;20142;-72
2023/07/01 23:14:26;;;;;;;7.20;6.60;;;17.30;99.90;;;;;;2612777;54;20122;-72
2023/07/01 23:20:13;;;;;;;7.20;6.47;;;17.30;99.90;;;;;;2615860;39;20509;-71
2023/07/01 23:26:01;;;;;;;7.37;6.77;;;17.30;99.90;;;;;;2614787;54;20251;-71
2023/07/01 23:31:49;;;;;;;8.43;6.63;;;17.30;99.90;;;;;;2612021;54;20652;-71
2023/07/01 23:37:37;;;;;;;7.13;6.53;;;17.30;99.90;;;;;;2614135;54;20415;-72
2023/07/01 23:43:25;;;;;;;7.50;6.90;;;17.30;99.90;;;;;;2613821;54;20700;-72
2023/07/01 23:49:12;;;;;;;7.73;7.03;;;17.10;99.90;;;;;;2613746;54;20239;-72
2023/07/01 23:55:01;;;;;;;7.07;6.37;;;17.20;99.90;;;;;;2613996;54;20121;-72
